Hawkins, TX

4:51 AM CST on February 13, 2016 (GMT -0600)
Fouke | | Change Station
CLOSE
Current Station
Personal Weather Station
Location: Hawkins, TX
Elevation: 374 ft
Nearby Weather Stations

Elev 374 ft 32.61 °N, 95.27 °W | Updated 30 minutes ago

Partly Cloudy
Partly Cloudy
36.5 °F
Feels Like 36 °F
N
0.0
Wind Variable Wind from NW

Today
High -- | Low -- °F
--% Chance of Precip.
Yesterday
High -- | Low -- °F
Precip. -- in
Pressure 30.38 in
Visibility 10.0 miles
Clouds Scattered Clouds 2200 ft
Mostly Cloudy 2800 ft
Windchill 36 °F
Dew Point 36 °F
Humidity 97%
Rainfall 0.00 in
Snow Depth Not available.
7:06 AM 6:04 PM
Waxing Crescent, 29% visible
METAR KJXI 131030Z AUTO 03003KT 10SM SCT022 BKN028 07/01 A3038 RMK AO2 T00730007
Pressure 30.38 in
Visibility 10.0 miles
Clouds Scattered Clouds 2200 ft
Mostly Cloudy 2800 ft
Windchill 36 °F
Dew Point 36 °F
Humidity 97%
Rainfall 0.00 in
Snow Depth Not available.
7:06 AM 6:04 PM
Waxing Crescent, 29% visible
METAR KJXI 131030Z AUTO 03003KT 10SM SCT022 BKN028 07/01 A3038 RMK AO2 T00730007

10-Day Weather Forecast

Almanac

Astronomy

Feb. 13, 2016 Rise Set
Actual Time
Civil Twilight
Nautical Twilight
Astronomical Twilight
Moon
Length of Visible Light
Length of Day
Tomorrow will be .
, % of the Moon is Illuminated

Today's Extremes

State Highs State Lows

Community

WunderPhotos

Upload Photos

1,892,537 photos uploaded!

WunderBlog® & News

Nearby

Air Quality

  Air Quality AQ Index Pollutant
Not available.

Snow Depth

Station Depth Elevation

Earthquake Activity

City Distance Mag. Time & Date
Minimum magnitude displayed is 2.5.

Coastal Water Temperatures

Place Temperature

Stations

Nearby Weather Stations

Station Location Temp. Windchill Dew Point Humidity Wind Precip. Elev Updated Type
                   

Watches & Warnings

There are currently no watches in effect.